Time;durP1;ratioP1;P1;durP2;ratioP2;P2;SDS_P1;SDS_P2;PMS_P1;PMS_P2;Temp;Humidity;BMP_temperature;BMP_pressure;BME280_temperature;BME280_humidity;BME280_pressure;Samples;Min_cycle;Max_cycle;Signal;HPM_P1;HPM_P2
2024/04/15 00:00:11;;;;;;;;;;;;;;;;;;5510589;26;5034;-60
2024/04/15 00:02:36;;;;;;;;;;;;;;;;;;5500662;26;3307;-59
2024/04/15 00:05:02;;;;;;;;;;;;;;;;;;5499633;26;5144;-59
2024/04/15 00:07:27;;;;;;;;;;;;;;;;;;5507579;26;4556;-60
2024/04/15 00:09:53;;;;;;;;;;;;;;;;;;5506882;26;5056;-59
2024/04/15 00:12:18;;;;;;;;;;;;;;;;;;5496582;26;5456;-59
2024/04/15 00:14:44;;;;;;;;;;;;;;;;;;5507942;26;3335;-59
2024/04/15 00:17:09;;;;;;;;;;;;;;;;;;5507393;26;5468;-60
2024/04/15 00:19:34;;;;;;;;;;;;;;;;;;5511069;26;5005;-59
2024/04/15 00:22:00;;;;;;;;;;;;;;;;;;5508062;26;5124;-60
2024/04/15 00:24:25;;;;;;;;;;;;;;;;;;5514000;26;5299;-59
2024/04/15 00:26:50;;;;;;;;;;;;;;;;;;5508064;26;4544;-58
2024/04/15 00:29:16;;;;;;;;;;;;;;;;;;5515381;26;3636;-60
2024/04/15 00:31:41;;;;;;;;;;;;;;;;;;5514911;26;5321;-59
2024/04/15 00:34:07;;;;;;;;;;;;;;;;;;5499918;26;5267;-59
2024/04/15 00:36:32;;;;;;;;;;;;;;;;;;5503464;26;5210;-60
2024/04/15 00:38:57;;;;;;;;;;;;;;;;;;5509923;26;5215;-60
2024/04/15 00:41:23;;;;;;;;;;;;;;;;;;5509928;25;3252;-60
2024/04/15 00:43:48;;;;;;;;;;;;;;;;;;5511868;26;5058;-59
2024/04/15 00:46:13;;;;;;;;;;;;;;;;;;5499330;26;5792;-58
2024/04/15 00:48:39;;;;;;;;;;;;;;;;;;5508202;26;5159;-60
2024/04/15 00:51:04;;;;;;;;;;;;;;;;;;5512528;26;5162;-60
2024/04/15 00:53:29;;;;;;;;;;;;;;;;;;5501055;26;3296;-60
2024/04/15 00:55:55;;;;;;;;;;;;;;;;;;5508979;26;4655;-59
2024/04/15 00:58:21;;;;;;;;;;;;;;;;;;5471602;26;5136;-59
2024/04/15 01:00:46;;;;;;;;;;;;;;;;;;5504457;26;5665;-58
2024/04/15 01:03:12;;;;;;;;;;;;;;;;;;5506764;26;5078;-59
2024/04/15 01:05:37;;;;;;;;;;;;;;;;;;5504026;26;3367;-60
2024/04/15 01:08:02;;;;;;;;;;;;;;;;;;5456031;26;4702;-60
2024/04/15 01:10:28;;;;;;;;;;;;;;;;;;5511417;25;4627;-60
2024/04/15 01:12:53;;;;;;;;;;;;;;;;;;5478905;26;5274;-60
2024/04/15 01:15:19;;;;;;;;;;;;;;;;;;5507193;26;5251;-60
2024/04/15 01:17:44;;;;;;;;;;;;;;;;;;5476369;26;3445;-61
2024/04/15 01:20:09;;;;;;;;;;;;;;;;;;5512344;26;5071;-61
2024/04/15 01:22:40;;;;;;;;;;;;;;;;;;5513815;25;4589;-60
2024/04/15 01:25:05;;;;;;;;;;;;;;;;;;5471727;26;4610;-59
2024/04/15 01:27:31;;;;;;;;;;;;;;;;;;5513233;26;5141;-60
2024/04/15 01:29:56;;;;;;;;;;;;;;;;;;5500520;26;6873;-61
2024/04/15 01:32:21;;;;;;;;;;;;;;;;;;5501585;25;3439;-59
2024/04/15 01:34:47;;;;;;;;;;;;;;;;;;5499274;26;4533;-60
2024/04/15 01:37:12;;;;;;;;;;;;;;;;;;5470786;26;5141;-60
2024/04/15 01:39:37;;;;;;;;;;;;;;;;;;5491904;26;5227;-60
2024/04/15 01:42:03;;;;;;;;;;;;;;;;;;5506895;26;5090;-60
2024/04/15 01:44:28;;;;;;;;;;;;;;;;;;5502997;26;3673;-59
2024/04/15 01:46:53;;;;;;;;;;;;;;;;;;5507914;26;5103;-58
2024/04/15 01:49:19;;;;;;;;;;;;;;;;;;5507493;26;5261;-59
2024/04/15 01:51:44;;;;;;;;;;;;;;;;;;5506268;26;5401;-60
2024/04/15 01:54:09;;;;;;;;;;;;;;;;;;5508779;26;5078;-61
2024/04/15 01:56:35;;;;;;;;;;;;;;;;;;5509503;26;3418;-60
2024/04/15 01:59:00;;;;;;;;;;;;;;;;;;5500950;26;5076;-60
2024/04/15 02:01:25;;;;;;;;;;;;;;;;;;5506530;25;5059;-60
2024/04/15 02:03:51;;;;;;;;;;;;;;;;;;5509952;26;4622;-61
2024/04/15 02:06:16;;;;;;;;;;;;;;;;;;5507911;26;5363;-60
2024/04/15 02:08:41;;;;;;;;;;;;;;;;;;5507460;26;3421;-60
2024/04/15 02:11:07;;;;;;;;;;;;;;;;;;5500793;26;5150;-60
2024/04/15 02:13:32;;;;;;;;;;;;;;;;;;5472555;26;5322;-60
2024/04/15 02:15:58;;;;;;;;;;;;;;;;;;5502627;26;5696;-59
2024/04/15 02:18:23;;;;;;;;;;;;;;;;;;5514632;26;5088;-60
2024/04/15 02:20:48;;;;;;;;;;;;;;;;;;5516124;25;5137;-58
2024/04/15 02:23:14;;;;;;;;;;;;;;;;;;5514236;26;3402;-60
2024/04/15 02:25:39;;;;;;;;;;;;;;;;;;5498900;26;5180;-60
2024/04/15 02:28:04;;;;;;;;;;;;;;;;;;5482295;26;4840;-60
2024/04/15 02:30:30;;;;;;;;;;;;;;;;;;5506478;26;7240;-59
2024/04/15 02:32:55;;;;;;;;;;;;;;;;;;5503419;26;5174;-59
2024/04/15 02:35:20;;;;;;;;;;;;;;;;;;5497528;26;3453;-58
2024/04/15 02:37:46;;;;;;;;;;;;;;;;;;5507601;26;5125;-59
2024/04/15 02:40:11;;;;;;;;;;;;;;;;;;5515846;26;5158;-60
2024/04/15 02:42:36;;;;;;;;;;;;;;;;;;5503384;26;5325;-59
2024/04/15 02:45:02;;;;;;;;;;;;;;;;;;5499860;26;5224;-58
2024/04/15 02:47:27;;;;;;;;;;;;;;;;;;5513535;26;3436;-60
2024/04/15 02:49:52;;;;;;;;;;;;;;;;;;5503730;26;5110;-59
2024/04/15 02:52:18;;;;;;;;;;;;;;;;;;5493160;26;4540;-60
2024/04/15 02:54:43;;;;;;;;;;;;;;;;;;5500037;26;4536;-61
2024/04/15 02:57:08;;;;;;;;;;;;;;;;;;5512582;25;5259;-61
2024/04/15 02:59:34;;;;;;;;;;;;;;;;;;5432935;26;3612;-60
2024/04/15 03:01:59;;;;;;;;;;;;;;;;;;5504075;26;5156;-59
2024/04/15 03:04:25;;;;;;;;;;;;;;;;;;5495840;26;5170;-58
2024/04/15 03:06:53;;;;;;;;;;;;;;;;;;5510189;26;5232;-59
2024/04/15 03:09:21;;;;;;;;;;;;;;;;;;5511262;26;5113;-60
2024/04/15 03:11:49;;;;;;;;;;;;;;;;;;5517166;26;3204;-58
2024/04/15 03:14:14;;;;;;;;;;;;;;;;;;5512392;26;4524;-59
2024/04/15 03:16:42;;;;;;;;;;;;;;;;;;5508977;26;5179;-57
2024/04/15 03:19:07;;;;;;;;;;;;;;;;;;5510724;26;5058;-59
2024/04/15 03:21:33;;;;;;;;;;;;;;;;;;5511524;26;5128;-59
2024/04/15 03:23:58;;;;;;;;;;;;;;;;;;5509987;25;4753;-59
2024/04/15 03:26:23;;;;;;;;;;;;;;;;;;5500931;26;3533;-59
2024/04/15 03:28:49;;;;;;;;;;;;;;;;;;5502408;26;4574;-59
2024/04/15 03:31:14;;;;;;;;;;;;;;;;;;5506481;26;5325;-60
2024/04/15 03:33:40;;;;;;;;;;;;;;;;;;5500460;26;5301;-58
2024/04/15 03:36:06;;;;;;;;;;;;;;;;;;5470292;26;5214;-58
2024/04/15 03:38:31;;;;;;;;;;;;;;;;;;5500827;26;3788;-60
2024/04/15 03:40:57;;;;;;;;;;;;;;;;;;5512820;25;5026;-59
2024/04/15 03:43:23;;;;;;;;;;;;;;;;;;5510267;26;5861;-60
2024/04/15 03:45:48;;;;;;;;;;;;;;;;;;5512184;26;5093;-60
2024/04/15 03:48:13;;;;;;;;;;;;;;;;;;5509105;26;4528;-60
2024/04/15 03:50:39;;;;;;;;;;;;;;;;;;5515472;26;3428;-61
2024/04/15 03:53:04;;;;;;;;;;;;;;;;;;5509818;26;5193;-60
2024/04/15 03:55:30;;;;;;;;;;;;;;;;;;5510432;25;5247;-62
2024/04/15 03:57:55;;;;;;;;;;;;;;;;;;5509061;25;5038;-60
2024/04/15 04:00:20;;;;;;;;;;;;;;;;;;5510255;26;5207;-60
2024/04/15 04:02:46;;;;;;;;;;;;;;;;;;5509047;26;3383;-59
2024/04/15 04:05:11;;;;;;;;;;;;;;;;;;5516162;26;5206;-60
2024/04/15 04:07:36;;;;;;;;;;;;;;;;;;5507412;26;4795;-60
2024/04/15 04:10:02;;;;;;;;;;;;;;;;;;5506362;26;5159;-60
2024/04/15 04:12:27;;;;;;;;;;;;;;;;;;5502057;25;5180;-60
2024/04/15 04:14:52;;;;;;;;;;;;;;;;;;5504904;26;5106;-60
2024/04/15 04:17:18;;;;;;;;;;;;;;;;;;5512497;26;3423;-60
2024/04/15 04:19:43;;;;;;;;;;;;;;;;;;5506496;26;4603;-59
2024/04/15 04:22:08;;;;;;;;;;;;;;;;;;5514365;25;4818;-60
2024/04/15 04:24:34;;;;;;;;;;;;;;;;;;5503481;26;5220;-60
2024/04/15 04:26:59;;;;;;;;;;;;;;;;;;5468440;26;4564;-60
2024/04/15 04:29:24;;;;;;;;;;;;;;;;;;5492115;25;3517;-61
2024/04/15 04:31:50;;;;;;;;;;;;;;;;;;5463919;26;5048;-60
2024/04/15 04:34:15;;;;;;;;;;;;;;;;;;5508922;26;4818;-59
2024/04/15 04:36:40;;;;;;;;;;;;;;;;;;5505290;26;5307;-60
2024/04/15 04:39:06;;;;;;;;;;;;;;;;;;5487221;26;5293;-59
2024/04/15 04:41:31;;;;;;;;;;;;;;;;;;5514532;26;1234;-60
2024/04/15 04:43:56;;;;;;;;;;;;;;;;;;5505197;26;4538;-60
2024/04/15 04:46:22;;;;;;;;;;;;;;;;;;5516260;26;4990;-60
2024/04/15 04:48:49;;;;;;;;;;;;;;;;;;5486569;26;5328;-60
2024/04/15 04:51:14;;;;;;;;;;;;;;;;;;5495595;26;5251;-60
2024/04/15 04:53:39;;;;;;;;;;;;;;;;;;5507306;26;3303;-59
2024/04/15 04:56:11;;;;;;;;;;;;;;;;;;5505519;25;5640;-61
2024/04/15 04:58:37;;;;;;;;;;;;;;;;;;5472394;26;4764;-60
2024/04/15 05:01:12;;;;;;;;;;;;;;;;;;5507347;25;5121;-60
2024/04/15 05:03:44;;;;;;;;;;;;;;;;;;5443396;26;4893;-59
2024/04/15 05:06:10;;;;;;;;;;;;;;;;;;5509472;26;4569;-60
2024/04/15 05:08:36;;;;;;;;;;;;;;;;;;5510440;26;3472;-62
2024/04/15 05:11:01;;;;;;;;;;;;;;;;;;5498865;25;5128;-61
2024/04/15 05:13:27;;;;;;;;;;;;;;;;;;5512501;25;4501;-59
2024/04/15 05:15:53;;;;;;;;;;;;;;;;;;5473337;26;5229;-60
2024/04/15 05:18:18;;;;;;;;;;;;;;;;;;5513060;26;5160;-60
2024/04/15 05:20:43;;;;;;;;;;;;;;;;;;5515874;25;3571;-62
2024/04/15 05:23:09;;;;;;;;;;;;;;;;;;5497301;26;5136;-62
2024/04/15 05:25:35;;;;;;;;;;;;;;;;;;5507786;26;4611;-60
2024/04/15 05:28:02;;;;;;;;;;;;;;;;;;5494724;26;4792;-61
2024/04/15 05:30:27;;;;;;;;;;;;;;;;;;5503745;26;5157;-62
2024/04/15 05:32:53;;;;;;;;;;;;;;;;;;5461249;26;5189;-61
2024/04/15 05:35:18;;;;;;;;;;;;;;;;;;5503429;25;3590;-60
2024/04/15 05:37:43;;;;;;;;;;;;;;;;;;5519315;25;5146;-58
2024/04/15 05:40:09;;;;;;;;;;;;;;;;;;5496311;25;5296;-60
2024/04/15 05:42:34;;;;;;;;;;;;;;;;;;5470486;26;5221;-61
2024/04/15 05:44:59;;;;;;;;;;;;;;;;;;5490357;25;5167;-60
2024/04/15 05:47:25;;;;;;;;;;;;;;;;;;5506156;25;1354;-61
2024/04/15 05:49:50;;;;;;;;;;;;;;;;;;5504701;26;5028;-61
2024/04/15 05:52:15;;;;;;;;;;;;;;;;;;5506165;26;5381;-60
2024/04/15 05:54:41;;;;;;;;;;;;;;;;;;5502878;26;5194;-61
2024/04/15 05:57:06;;;;;;;;;;;;;;;;;;5520442;25;4818;-62
2024/04/15 05:59:31;;;;;;;;;;;;;;;;;;5516048;26;1854;-60
2024/04/15 06:01:57;;;;;;;;;;;;;;;;;;5503575;26;5179;-60
2024/04/15 06:04:22;;;;;;;;;;;;;;;;;;5497647;26;5244;-61
2024/04/15 06:06:49;;;;;;;;;;;;;;;;;;5491579;26;4555;-60
2024/04/15 06:09:14;;;;;;;;;;;;;;;;;;5484718;25;5144;-62
2024/04/15 06:11:40;;;;;;;;;;;;;;;;;;5470184;26;3792;-62
2024/04/15 06:14:05;;;;;;;;;;;;;;;;;;5438230;26;4791;-63
2024/04/15 06:16:30;;;;;;;;;;;;;;;;;;5492520;26;4541;-59
2024/04/15 06:18:56;;;;;;;;;;;;;;;;;;5510745;25;4652;-60
2024/04/15 06:21:21;;;;;;;;;;;;;;;;;;5500283;26;5205;-59
2024/04/15 06:23:46;;;;;;;;;;;;;;;;;;5502793;26;3609;-60
2024/04/15 06:26:12;;;;;;;;;;;;;;;;;;5494335;26;5042;-62
2024/04/15 06:28:38;;;;;;;;;;;;;;;;;;5504989;26;5080;-62
2024/04/15 06:31:03;;;;;;;;;;;;;;;;;;5512908;26;4994;-62
2024/04/15 06:33:28;;;;;;;;;;;;;;;;;;5492932;26;5177;-64
2024/04/15 06:35:54;;;;;;;;;;;;;;;;;;5497249;25;5110;-63
2024/04/15 06:38:19;;;;;;;;;;;;;;;;;;5493110;26;3504;-62
2024/04/15 06:40:45;;;;;;;;;;;;;;;;;;5491982;26;5098;-62
2024/04/15 06:43:10;;;;;;;;;;;;;;;;;;5465171;26;5229;-61
2024/04/15 06:45:36;;;;;;;;;;;;;;;;;;5512848;26;4529;-62
2024/04/15 06:48:01;;;;;;;;;;;;;;;;;;5518155;26;5157;-63
2024/04/15 06:50:27;;;;;;;;;;;;;;;;;;5505969;26;3685;-64
2024/04/15 06:52:52;;;;;;;;;;;;;;;;;;5503483;26;4482;-62
2024/04/15 06:55:18;;;;;;;;;;;;;;;;;;5506841;26;5008;-63
2024/04/15 06:57:43;;;;;;;;;;;;;;;;;;5515291;25;5176;-62
2024/04/15 07:00:09;;;;;;;;;;;;;;;;;;5495881;26;5264;-62
2024/04/15 07:02:34;;;;;;;;;;;;;;;;;;5497170;26;3776;-60
2024/04/15 07:04:59;;;;;;;;;;;;;;;;;;5500227;26;5367;-60
2024/04/15 07:07:25;;;;;;;;;;;;;;;;;;5512156;26;5071;-62
2024/04/15 07:09:52;;;;;;;;;;;;;;;;;;5497872;26;5246;-60
2024/04/15 07:12:17;;;;;;;;;;;;;;;;;;5465100;26;5211;-61
2024/04/15 07:14:42;;;;;;;;;;;;;;;;;;5507114;26;3308;-60
2024/04/15 07:17:08;;;;;;;;;;;;;;;;;;5491765;25;5224;-60
2024/04/15 07:19:33;;;;;;;;;;;;;;;;;;5505139;26;5271;-61
2024/04/15 07:21:58;;;;;;;;;;;;;;;;;;5505233;26;5380;-61
2024/04/15 07:24:24;;;;;;;;;;;;;;;;;;5499082;26;4585;-61
2024/04/15 07:26:49;;;;;;;;;;;;;;;;;;5493582;26;4817;-60
2024/04/15 07:29:14;;;;;;;;;;;;;;;;;;5505065;26;3360;-59
2024/04/15 07:31:40;;;;;;;;;;;;;;;;;;5505590;25;5221;-65
2024/04/15 07:34:05;;;;;;;;;;;;;;;;;;5505937;25;4760;-61
2024/04/15 07:36:31;;;;;;;;;;;;;;;;;;5511005;26;5162;-60
2024/04/15 07:38:56;;;;;;;;;;;;;;;;;;5514529;26;5134;-62
2024/04/15 07:41:22;;;;;;;;;;;;;;;;;;5513718;26;3441;-63
2024/04/15 07:43:47;;;;;;;;;;;;;;;;;;5494065;26;4585;-63
2024/04/15 07:46:12;;;;;;;;;;;;;;;;;;5512594;26;4798;-63
2024/04/15 07:48:38;;;;;;;;;;;;;;;;;;5509734;26;5164;-65
2024/04/15 07:51:03;;;;;;;;;;;;;;;;;;5494267;25;5107;-62
2024/04/15 07:53:29;;;;;;;;;;;;;;;;;;5510460;26;3641;-63
2024/04/15 07:55:54;;;;;;;;;;;;;;;;;;5517206;25;4510;-64
2024/04/15 07:58:20;;;;;;;;;;;;;;;;;;5483037;26;5439;-66
2024/04/15 08:00:45;;;;;;;;;;;;;;;;;;5458813;26;4928;-66
2024/04/15 08:03:10;;;;;;;;;;;;;;;;;;5502359;26;5238;-64
2024/04/15 08:05:36;;;;;;;;;;;;;;;;;;5506969;26;3611;-62
2024/04/15 08:08:01;;;;;;;;;;;;;;;;;;5497702;26;4588;-63
2024/04/15 08:10:26;;;;;;;;;;;;;;;;;;5510493;26;4466;-63
2024/04/15 08:12:52;;;;;;;;;;;;;;;;;;5501985;26;5560;-62
2024/04/15 08:15:17;;;;;;;;;;;;;;;;;;5499643;25;4548;-63
2024/04/15 08:17:43;;;;;;;;;;;;;;;;;;5509913;26;3356;-63
2024/04/15 08:20:08;;;;;;;;;;;;;;;;;;5509906;26;5091;-64
2024/04/15 08:22:34;;;;;;;;;;;;;;;;;;5501175;25;5339;-63
2024/04/15 08:24:59;;;;;;;;;;;;;;;;;;5464881;26;5246;-63
2024/04/15 08:27:25;;;;;;;;;;;;;;;;;;5507635;26;5227;-68
2024/04/15 08:29:50;;;;;;;;;;;;;;;;;;5501423;26;5257;-63
2024/04/15 08:32:15;;;;;;;;;;;;;;;;;;5506387;25;3369;-62
2024/04/15 08:34:41;;;;;;;;;;;;;;;;;;5501906;26;5554;-58
2024/04/15 08:37:07;;;;;;;;;;;;;;;;;;5507559;26;5156;-59
2024/04/15 08:39:34;;;;;;;;;;;;;;;;;;5507020;26;5295;-56
2024/04/15 08:42:05;;;;;;;;;;;;;;;;;;5461592;26;5256;-60
2024/04/15 08:44:30;;;;;;;;;;;;;;;;;;5466719;26;3404;-59
2024/04/15 08:46:55;;;;;;;;;;;;;;;;;;5466075;26;4969;-59
2024/04/15 08:49:21;;;;;;;;;;;;;;;;;;5471205;26;5085;-58
2024/04/15 08:51:46;;;;;;;;;;;;;;;;;;5519574;26;5071;-58
2024/04/15 08:54:11;;;;;;;;;;;;;;;;;;5495791;26;4692;-59
2024/04/15 08:56:37;;;;;;;;;;;;;;;;;;5475819;26;1468;-58
2024/04/15 08:59:02;;;;;;;;;;;;;;;;;;5500545;25;5156;-58
2024/04/15 09:01:29;;;;;;;;;;;;;;;;;;5463022;26;4858;-59
2024/04/15 09:03:54;;;;;;;;;;;;;;;;;;5471940;26;5323;-58
2024/04/15 09:06:19;;;;;;;;;;;;;;;;;;5509764;26;4774;-59
2024/04/15 09:08:45;;;;;;;;;;;;;;;;;;5516540;26;3320;-57
2024/04/15 09:11:12;;;;;;;;;;;;;;;;;;5511181;26;5016;-59
2024/04/15 09:13:38;;;;;;;;;;;;;;;;;;5474714;26;5232;-57
2024/04/15 09:16:03;;;;;;;;;;;;;;;;;;5500149;26;5078;-59
2024/04/15 09:18:28;;;;;;;;;;;;;;;;;;5507306;25;4535;-60
2024/04/15 09:20:54;;;;;;;;;;;;;;;;;;5454165;26;5192;-57
2024/04/15 09:23:20;;;;;;;;;;;;;;;;;;5510458;26;3605;-59
2024/04/15 09:25:45;;;;;;;;;;;;;;;;;;5509788;26;5269;-59
2024/04/15 09:28:10;;;;;;;;;;;;;;;;;;5500818;26;5181;-58
2024/04/15 09:30:36;;;;;;;;;;;;;;;;;;5513856;26;5269;-59
2024/04/15 09:33:01;;;;;;;;;;;;;;;;;;5515490;26;5125;-58
2024/04/15 09:35:27;;;;;;;;;;;;;;;;;;5511293;26;3344;-59
2024/04/15 09:37:53;;;;;;;;;;;;;;;;;;5506950;26;4523;-59
2024/04/15 09:40:20;;;;;;;;;;;;;;;;;;5478739;26;5087;-59
2024/04/15 09:42:45;;;;;;;;;;;;;;;;;;5456131;26;5633;-59
2024/04/15 09:45:11;;;;;;;;;;;;;;;;;;5510576;26;5200;-59
2024/04/15 09:47:36;;;;;;;;;;;;;;;;;;5500189;26;1380;-59
2024/04/15 09:50:02;;;;;;;;;;;;;;;;;;5465219;26;5071;-59
2024/04/15 09:52:30;;;;;;;;;;;;;;;;;;5470441;26;5131;-59
2024/04/15 09:55:08;;;;;;;;;;;;;;;;;;5460547;26;4582;-59
2024/04/15 09:57:39;;;;;;;;;;;;;;;;;;5507600;25;6225;-59
2024/04/15 10:00:06;;;;;;;;;;;;;;;;;;5511102;26;4613;-59
2024/04/15 10:02:35;;;;;;;;;;;;;;;;;;5466485;26;3469;-59
2024/04/15 10:05:08;;;;;;;;;;;;;;;;;;5502968;26;5166;-59
2024/04/15 10:07:33;;;;;;;;;;;;;;;;;;5500977;26;5088;-58
2024/04/15 10:09:58;;;;;;;;;;;;;;;;;;5505912;26;5168;-59
2024/04/15 10:12:24;;;;;;;;;;;;;;;;;;5485656;26;5089;-59
2024/04/15 10:14:50;;;;;;;;;;;;;;;;;;5509698;26;5013;-59
2024/04/15 10:17:17;;;;;;;;;;;;;;;;;;5484345;26;1816;-59
2024/04/15 10:19:42;;;;;;;;;;;;;;;;;;5461778;26;5235;-59
2024/04/15 10:22:08;;;;;;;;;;;;;;;;;;5460369;26;4643;-59
2024/04/15 10:24:33;;;;;;;;;;;;;;;;;;5513301;26;4817;-59
2024/04/15 10:26:59;;;;;;;;;;;;;;;;;;5514432;26;5232;-59
2024/04/15 10:29:24;;;;;;;;;;;;;;;;;;5505244;26;1432;-59
2024/04/15 10:31:50;;;;;;;;;;;;;;;;;;5502026;26;5149;-59
2024/04/15 10:34:16;;;;;;;;;;;;;;;;;;5506488;26;5096;-59
2024/04/15 10:36:42;;;;;;;;;;;;;;;;;;5507344;26;4539;-59
2024/04/15 10:39:13;;;;;;;;;;;;;;;;;;5520245;26;5155;-59
2024/04/15 10:41:39;;;;;;;;;;;;;;;;;;5510907;26;1421;-59
2024/04/15 10:44:04;;;;;;;;;;;;;;;;;;5508668;26;5281;-59
2024/04/15 10:46:30;;;;;;;;;;;;;;;;;;5460727;26;5283;-59
2024/04/15 10:48:55;;;;;;;;;;;;;;;;;;5470937;26;5156;-59
2024/04/15 10:51:20;;;;;;;;;;;;;;;;;;5503233;26;4658;-59
2024/04/15 10:53:46;;;;;;;;;;;;;;;;;;5519493;26;3468;-59
2024/04/15 10:56:11;;;;;;;;;;;;;;;;;;5523157;25;5009;-59
2024/04/15 10:58:36;;;;;;;;;;;;;;;;;;5513340;26;4513;-59
2024/04/15 11:01:02;;;;;;;;;;;;;;;;;;5502100;26;5213;-59
2024/04/15 11:03:27;;;;;;;;;;;;;;;;;;5463655;26;5117;-59
2024/04/15 11:05:53;;;;;;;;;;;;;;;;;;5514907;26;5145;-59
2024/04/15 11:08:18;;;;;;;;;;;;;;;;;;5474592;26;1367;-60
2024/04/15 11:10:43;;;;;;;;;;;;;;;;;;5512086;26;5117;-59
2024/04/15 11:13:12;;;;;;;;;;;;;;;;;;5502411;26;4991;-59
2024/04/15 11:15:39;;;;;;;;;;;;;;;;;;5511504;26;4594;-59
2024/04/15 11:18:04;;;;;;;;;;;;;;;;;;5503814;26;5047;-59
2024/04/15 11:20:30;;;;;;;;;;;;;;;;;;5466348;26;2608;-59
2024/04/15 11:22:55;;;;;;;;;;;;;;;;;;5520414;26;5182;-59
2024/04/15 11:25:21;;;;;;;;;;;;;;;;;;5508516;26;5061;-59
2024/04/15 11:27:56;;;;;;;;;;;;;;;;;;5462428;26;5385;-59
2024/04/15 11:30:22;;;;;;;;;;;;;;;;;;5460082;26;5071;-58
2024/04/15 11:32:48;;;;;;;;;;;;;;;;;;5469928;26;5107;-59
2024/04/15 11:35:13;;;;;;;;;;;;;;;;;;5467061;26;3434;-59
2024/04/15 11:37:39;;;;;;;;;;;;;;;;;;5485301;26;5241;-59
2024/04/15 11:40:04;;;;;;;;;;;;;;;;;;5505894;26;4673;-59
2024/04/15 11:42:30;;;;;;;;;;;;;;;;;;5498155;25;5218;-59
2024/04/15 11:44:59;;;;;;;;;;;;;;;;;;5508964;26;5115;-58
2024/04/15 11:47:25;;;;;;;;;;;;;;;;;;5479883;26;3261;-59
2024/04/15 11:49:50;;;;;;;;;;;;;;;;;;5500017;26;5124;-60
2024/04/15 11:52:15;;;;;;;;;;;;;;;;;;5509584;26;5335;-62
2024/04/15 11:54:41;;;;;;;;;;;;;;;;;;5516305;26;5124;-61
2024/04/15 11:57:06;;;;;;;;;;;;;;;;;;5515184;25;5124;-62
2024/04/15 11:59:31;;;;;;;;;;;;;;;;;;5519508;26;1522;-61
2024/04/15 12:01:57;;;;;;;;;;;;;;;;;;5498900;26;5030;-65
2024/04/15 12:04:22;;;;;;;;;;;;;;;;;;5471710;26;5146;-63
2024/04/15 12:06:51;;;;;;;;;;;;;;;;;;5503590;26;5703;-63
2024/04/15 12:09:19;;;;;;;;;;;;;;;;;;5500556;26;5133;-63
2024/04/15 12:11:44;;;;;;;;;;;;;;;;;;5509485;26;3674;-64
2024/04/15 12:14:10;;;;;;;;;;;;;;;;;;5511849;26;4618;-64
2024/04/15 12:16:36;;;;;;;;;;;;;;;;;;5476312;26;5097;-61
2024/04/15 12:19:01;;;;;;;;;;;;;;;;;;5500933;26;4779;-64
2024/04/15 12:21:26;;;;;;;;;;;;;;;;;;5502046;26;5115;-60
2024/04/15 12:23:52;;;;;;;;;;;;;;;;;;5509386;26;5189;-60
2024/04/15 12:26:17;;;;;;;;;;;;;;;;;;5496978;25;3605;-60
2024/04/15 12:28:43;;;;;;;;;;;;;;;;;;5482376;26;5155;-60
2024/04/15 12:31:11;;;;;;;;;;;;;;;;;;5508081;26;5058;-61
2024/04/15 12:33:36;;;;;;;;;;;;;;;;;;5500609;26;5094;-62
2024/04/15 12:36:02;;;;;;;;;;;;;;;;;;5493668;26;5248;-61
2024/04/15 12:38:27;;;;;;;;;;;;;;;;;;5498062;26;3437;-61
2024/04/15 12:40:52;;;;;;;;;;;;;;;;;;5493945;25;5034;-61
2024/04/15 12:43:18;;;;;;;;;;;;;;;;;;5466606;26;4566;-62
2024/04/15 12:45:43;;;;;;;;;;;;;;;;;;5501479;26;5271;-61
2024/04/15 12:48:18;;;;;;;;;;;;;;;;;;5508434;25;5230;-62
2024/04/15 12:50:43;;;;;;;;;;;;;;;;;;5511436;26;1288;-62
2024/04/15 12:53:09;;;;;;;;;;;;;;;;;;5502810;26;5093;-61
2024/04/15 12:55:34;;;;;;;;;;;;;;;;;;5501608;25;4573;-68
2024/04/15 12:58:02;;;;;;;;;;;;;;;;;;5505622;25;5179;-62
2024/04/15 13:00:28;;;;;;;;;;;;;;;;;;5501931;26;5411;-64
2024/04/15 13:02:54;;;;;;;;;;;;;;;;;;5506384;25;5160;-61
2024/04/15 13:05:19;;;;;;;;;;;;;;;;;;5511084;26;3361;-60
2024/04/15 13:07:44;;;;;;;;;;;;;;;;;;5514649;25;4690;-64
2024/04/15 13:10:10;;;;;;;;;;;;;;;;;;5505447;26;5232;-60
2024/04/15 13:12:35;;;;;;;;;;;;;;;;;;5512226;26;5222;-63
2024/04/15 13:15:01;;;;;;;;;;;;;;;;;;5504144;26;5154;-62
2024/04/15 13:17:26;;;;;;;;;;;;;;;;;;5511488;26;3446;-61
2024/04/15 13:19:51;;;;;;;;;;;;;;;;;;5473390;26;5120;-61
2024/04/15 13:22:16;;;;;;;;;;;;;;;;;;5505537;25;5093;-61
2024/04/15 13:24:42;;;;;;;;;;;;;;;;;;5450548;26;5269;-61
2024/04/15 13:27:08;;;;;;;;;;;;;;;;;;5500786;26;4540;-61
2024/04/15 13:29:34;;;;;;;;;;;;;;;;;;5503433;26;3460;-61
2024/04/15 13:31:59;;;;;;;;;;;;;;;;;;5497802;26;4566;-61
2024/04/15 13:34:25;;;;;;;;;;;;;;;;;;5500228;26;5136;-62
2024/04/15 13:36:53;;;;;;;;;;;;;;;;;;5489743;25;4670;-61
2024/04/15 13:39:19;;;;;;;;;;;;;;;;;;5504254;26;4565;-62
2024/04/15 13:41:44;;;;;;;;;;;;;;;;;;5505346;26;3360;-60
2024/04/15 13:44:10;;;;;;;;;;;;;;;;;;5507010;26;5323;-62
2024/04/15 13:46:35;;;;;;;;;;;;;;;;;;5475748;26;5148;-61
2024/04/15 13:49:00;;;;;;;;;;;;;;;;;;5501684;26;5198;-66
2024/04/15 13:51:26;;;;;;;;;;;;;;;;;;5503319;25;5231;-67
2024/04/15 13:53:52;;;;;;;;;;;;;;;;;;5513940;26;5124;-68
2024/04/15 13:56:17;;;;;;;;;;;;;;;;;;5506338;25;3326;-65
2024/04/15 13:58:42;;;;;;;;;;;;;;;;;;5503338;25;5155;-67
2024/04/15 14:01:08;;;;;;;;;;;;;;;;;;5507374;25;5155;-68
2024/04/15 14:03:33;;;;;;;;;;;;;;;;;;5505272;26;5340;-66
2024/04/15 14:05:58;;;;;;;;;;;;;;;;;;5497021;26;4644;-65
2024/04/15 14:08:24;;;;;;;;;;;;;;;;;;5507389;25;1388;-68
2024/04/15 14:10:49;;;;;;;;;;;;;;;;;;5499266;25;4538;-67
2024/04/15 14:13:16;;;;;;;;;;;;;;;;;;5486878;25;5101;-68
2024/04/15 14:15:41;;;;;;;;;;;;;;;;;;5496303;25;5075;-68
2024/04/15 14:18:06;;;;;;;;;;;;;;;;;;5512356;25;5150;-68
2024/04/15 14:20:32;;;;;;;;;;;;;;;;;;5462375;25;3571;-68
2024/04/15 14:22:57;;;;;;;;;;;;;;;;;;5515866;26;4981;-66
2024/04/15 14:25:22;;;;;;;;;;;;;;;;;;5497910;26;4698;-64
2024/04/15 14:27:48;;;;;;;;;;;;;;;;;;5504948;26;4576;-70
2024/04/15 14:30:13;;;;;;;;;;;;;;;;;;5506345;26;5123;-69
2024/04/15 14:32:39;;;;;;;;;;;;;;;;;;5502412;26;3276;-67
2024/04/15 14:35:04;;;;;;;;;;;;;;;;;;5456821;26;4980;-69
2024/04/15 14:37:29;;;;;;;;;;;;;;;;;;5501105;26;5320;-72
2024/04/15 14:39:55;;;;;;;;;;;;;;;;;;5507809;26;5095;-70
2024/04/15 14:42:20;;;;;;;;;;;;;;;;;;5473026;26;5274;-69
2024/04/15 14:44:46;;;;;;;;;;;;;;;;;;5506416;26;1863;-65
2024/04/15 14:47:11;;;;;;;;;;;;;;;;;;5514897;26;5050;-68
2024/04/15 14:49:37;;;;;;;;;;;;;;;;;;5501194;26;4995;-70
2024/04/15 14:52:03;;;;;;;;;;;;;;;;;;5500124;26;5219;-60
2024/04/15 14:54:28;;;;;;;;;;;;;;;;;;5513898;26;5157;-59
2024/04/15 14:56:53;;;;;;;;;;;;;;;;;;5511494;25;4681;-60
2024/04/15 14:59:19;;;;;;;;;;;;;;;;;;5504727;26;3352;-59
2024/04/15 15:01:44;;;;;;;;;;;;;;;;;;5505218;26;5225;-60
2024/04/15 15:04:09;;;;;;;;;;;;;;;;;;5510279;26;4653;-60
2024/04/15 15:06:35;;;;;;;;;;;;;;;;;;5500389;26;5003;-60
2024/04/15 15:09:01;;;;;;;;;;;;;;;;;;5462969;26;5288;-61
2024/04/15 15:11:26;;;;;;;;;;;;;;;;;;5509576;26;3484;-60
2024/04/15 15:13:52;;;;;;;;;;;;;;;;;;5508409;26;5083;-59
2024/04/15 15:16:17;;;;;;;;;;;;;;;;;;5510257;26;5240;-61
2024/04/15 15:18:42;;;;;;;;;;;;;;;;;;5508117;26;4634;-60
2024/04/15 15:21:08;;;;;;;;;;;;;;;;;;5505825;25;5242;-59
2024/04/15 15:23:33;;;;;;;;;;;;;;;;;;5477221;26;3546;-62
2024/04/15 15:25:59;;;;;;;;;;;;;;;;;;5507083;26;5742;-59
2024/04/15 15:28:24;;;;;;;;;;;;;;;;;;5504184;25;5247;-58
2024/04/15 15:30:49;;;;;;;;;;;;;;;;;;5506444;26;5349;-59
2024/04/15 15:33:15;;;;;;;;;;;;;;;;;;5515412;26;5207;-59
2024/04/15 15:35:40;;;;;;;;;;;;;;;;;;5508891;26;3374;-59
2024/04/15 15:38:08;;;;;;;;;;;;;;;;;;5463512;26;5016;-59
2024/04/15 15:40:33;;;;;;;;;;;;;;;;;;5502341;26;5201;-59
2024/04/15 15:42:58;;;;;;;;;;;;;;;;;;5503340;26;5229;-59
2024/04/15 15:45:24;;;;;;;;;;;;;;;;;;5509433;26;5233;-58
2024/04/15 15:47:49;;;;;;;;;;;;;;;;;;5509010;26;5118;-58
2024/04/15 15:50:15;;;;;;;;;;;;;;;;;;5506319;26;3856;-59
2024/04/15 15:52:41;;;;;;;;;;;;;;;;;;5477883;26;5702;-59
2024/04/15 15:55:06;;;;;;;;;;;;;;;;;;5501498;26;5248;-59
2024/04/15 15:57:31;;;;;;;;;;;;;;;;;;5514578;25;5162;-59
2024/04/15 15:59:57;;;;;;;;;;;;;;;;;;5509261;26;5206;-58
2024/04/15 16:02:22;;;;;;;;;;;;;;;;;;5515726;26;3443;-59
2024/04/15 16:04:47;;;;;;;;;;;;;;;;;;5512770;26;5112;-59
2024/04/15 16:07:13;;;;;;;;;;;;;;;;;;5508914;26;5086;-59
2024/04/15 16:09:38;;;;;;;;;;;;;;;;;;5501660;26;4607;-59
2024/04/15 16:12:04;;;;;;;;;;;;;;;;;;5513855;26;5255;-59
2024/04/15 16:14:30;;;;;;;;;;;;;;;;;;5506547;26;3580;-61
2024/04/15 16:16:55;;;;;;;;;;;;;;;;;;5505430;26;5187;-60
2024/04/15 16:19:20;;;;;;;;;;;;;;;;;;5478200;26;5090;-60
2024/04/15 16:21:46;;;;;;;;;;;;;;;;;;5501577;26;5155;-60
2024/04/15 16:24:11;;;;;;;;;;;;;;;;;;5465138;26;6083;-60
2024/04/15 16:26:36;;;;;;;;;;;;;;;;;;5506628;26;3623;-60
2024/04/15 16:29:05;;;;;;;;;;;;;;;;;;5467204;26;4486;-59
2024/04/15 16:31:31;;;;;;;;;;;;;;;;;;5501687;26;4740;-60
2024/04/15 16:33:56;;;;;;;;;;;;;;;;;;5507611;26;5286;-59
2024/04/15 16:36:21;;;;;;;;;;;;;;;;;;5511413;26;5251;-59
2024/04/15 16:38:50;;;;;;;;;;;;;;;;;;5498862;26;3407;-60
2024/04/15 16:41:15;;;;;;;;;;;;;;;;;;5506960;26;4950;-60
2024/04/15 16:43:41;;;;;;;;;;;;;;;;;;5510254;26;5071;-59
2024/04/15 16:46:06;;;;;;;;;;;;;;;;;;5507336;26;5101;-60
2024/04/15 16:48:32;;;;;;;;;;;;;;;;;;5492809;26;4647;-59
2024/04/15 16:50:57;;;;;;;;;;;;;;;;;;5489027;26;5059;-60